createdAt,value
2022-11-18T00:00:27.307Z,98968.97
2022-11-18T00:02:54.275Z,98973.53
2022-11-18T00:05:20.996Z,98974.25
2022-11-18T00:07:47.674Z,98979.37
2022-11-18T00:10:14.439Z,98977.44
2022-11-18T00:12:59.803Z,98968.16
2022-11-18T00:15:31.562Z,98964.56
2022-11-18T00:17:58.592Z,98961.69
2022-11-18T00:20:25.257Z,98971.03
2022-11-18T00:22:51.983Z,98975.19
2022-11-18T00:25:18.775Z,98986.00
2022-11-18T00:27:45.506Z,98994.81
2022-11-18T00:30:12.197Z,99000.78
2022-11-18T00:32:38.869Z,98999.00
2022-11-18T00:35:05.940Z,98998.25
2022-11-18T00:37:32.644Z,98997.59
2022-11-18T00:39:59.389Z,99000.34
2022-11-18T00:42:44.707Z,99010.87
2022-11-18T00:45:11.491Z,99004.88
2022-11-18T00:47:38.229Z,98997.00
2022-11-18T00:50:05.127Z,99005.78
2022-11-18T00:52:31.878Z,99005.59
2022-11-18T00:54:58.834Z,98994.06
2022-11-18T00:57:25.595Z,99005.78
2022-11-18T00:59:52.427Z,98996.56
2022-11-18T01:02:19.168Z,98982.34
2022-11-18T01:04:45.863Z,98978.16
2022-11-18T01:07:12.674Z,98973.25
2022-11-18T01:09:39.352Z,98970.88
2022-11-18T01:12:24.894Z,98958.25
2022-11-18T01:14:51.601Z,98950.47
2022-11-18T01:17:18.556Z,98941.63
2022-11-18T01:19:45.361Z,98935.97
2022-11-18T01:22:12.041Z,98933.13
2022-11-18T01:24:38.814Z,98930.38
2022-11-18T01:27:05.537Z,98927.19
2022-11-18T01:29:32.275Z,98935.63
2022-11-18T01:32:23.476Z,98930.25
2022-11-18T01:34:45.876Z,98923.50
2022-11-18T01:37:12.838Z,98918.44
2022-11-18T01:39:39.601Z,98920.78
2022-11-18T01:42:12.047Z,98913.63
2022-11-18T01:44:56.910Z,98911.94
2022-11-18T01:47:24.134Z,98904.31
2022-11-18T01:49:51.124Z,98899.22
2022-11-18T01:52:17.964Z,98891.53
2022-11-18T01:54:48.113Z,98895.00
2022-11-18T01:57:17.772Z,98882.69
2022-11-18T01:59:46.629Z,98864.13
2022-11-18T02:02:15.008Z,98851.78
2022-11-18T02:04:43.988Z,98849.41
2022-11-18T02:07:11.793Z,98840.06
2022-11-18T02:09:38.643Z,98847.72
2022-11-18T02:12:05.589Z,98850.09
2022-11-18T02:14:34.485Z,98872.84
2022-11-18T02:17:01.194Z,98872.81
2022-11-18T02:19:49.528Z,98866.94
2022-11-18T02:22:25.114Z,98871.75
2022-11-18T02:24:59.759Z,98862.16
2022-11-18T02:27:41.884Z,98865.66
2022-11-18T02:30:09.903Z,98868.81
2022-11-18T02:32:36.639Z,98869.31
2022-11-18T02:35:08.090Z,98873.56
2022-11-18T02:37:37.030Z,98877.78
2022-11-18T02:40:30.168Z,98870.28
2022-11-18T02:43:06.600Z,98864.91
2022-11-18T02:45:33.874Z,98863.38
2022-11-18T02:48:04.254Z,98858.81
2022-11-18T02:50:33.692Z,98850.25
2022-11-18T02:53:01.707Z,98861.59
2022-11-18T02:55:31.098Z,98857.22
2022-11-18T02:57:58.592Z,98855.97
2022-11-18T03:00:25.334Z,98844.94
2022-11-18T03:02:52.129Z,98843.50
2022-11-18T03:05:37.710Z,98835.84
2022-11-18T03:08:09.799Z,98825.13
2022-11-18T03:10:42.596Z,98828.59
2022-11-18T03:13:15.115Z,98821.38
2022-11-18T03:15:48.692Z,98810.66
2022-11-18T03:18:24.495Z,98813.63
2022-11-18T03:20:53.598Z,98816.78
2022-11-18T03:23:25.568Z,98825.94
2022-11-18T03:25:57.835Z,98812.41
2022-11-18T03:28:30.446Z,98792.41
2022-11-18T03:31:01.800Z,98779.91
2022-11-18T03:33:38.138Z,98783.75
2022-11-18T03:36:07.067Z,98775.47
2022-11-18T03:38:36.762Z,98772.78
2022-11-18T03:41:05.653Z,98797.06
2022-11-18T03:43:34.936Z,98796.00
2022-11-18T03:46:04.538Z,98804.75
2022-11-18T03:48:34.527Z,98801.69
2022-11-18T03:51:02.876Z,98802.72
2022-11-18T03:53:32.135Z,98801.81
2022-11-18T03:56:25.212Z,98788.09
2022-11-18T03:58:54.959Z,98778.69
2022-11-18T04:01:25.488Z,98771.53
2022-11-18T04:03:52.239Z,98772.81
2022-11-18T04:06:26.809Z,98771.72
2022-11-18T04:08:56.148Z,98770.69
2022-11-18T04:11:54.445Z,98774.06
2022-11-18T04:14:21.211Z,98776.75
2022-11-18T04:16:50.761Z,98773.72
2022-11-18T04:19:17.500Z,98774.50
2022-11-18T04:21:44.238Z,98779.63
2022-11-18T04:24:10.962Z,98796.75
2022-11-18T04:26:37.646Z,98801.91
2022-11-18T04:29:04.295Z,98789.16
2022-11-18T04:31:31.038Z,98791.34
2022-11-18T04:33:57.767Z,98794.72
2022-11-18T04:36:24.455Z,98788.66
2022-11-18T04:38:51.166Z,98791.50
2022-11-18T04:41:17.885Z,98780.78
2022-11-18T04:43:44.636Z,98775.50
2022-11-18T04:46:11.357Z,98771.88
2022-11-18T04:48:38.061Z,98769.97
2022-11-18T04:51:05.224Z,98774.37
2022-11-18T04:53:31.960Z,98768.88
2022-11-18T04:56:04.799Z,98767.19
2022-11-18T04:58:31.681Z,98770.47
2022-11-18T05:00:58.491Z,98774.13
2022-11-18T05:03:25.253Z,98771.00
2022-11-18T05:05:52.043Z,98770.25
2022-11-18T05:08:18.772Z,98764.00
2022-11-18T05:10:45.450Z,98757.06
2022-11-18T05:13:13.283Z,98763.09
2022-11-18T05:15:40.060Z,98753.38
2022-11-18T05:18:06.761Z,98746.56
2022-11-18T05:20:36.183Z,98751.50
2022-11-18T05:23:07.066Z,98765.13
2022-11-18T05:25:35.915Z,98773.06
2022-11-18T05:28:03.343Z,98759.31
2022-11-18T05:30:30.055Z,98762.41
2022-11-18T05:32:56.762Z,98752.91
2022-11-18T05:35:23.536Z,98742.69
2022-11-18T05:37:50.806Z,98737.78
2022-11-18T05:40:17.766Z,98734.88
2022-11-18T05:43:02.941Z,98731.13
2022-11-18T05:45:29.640Z,98731.22
2022-11-18T05:48:04.567Z,98732.06
2022-11-18T05:50:32.436Z,98735.09
2022-11-18T05:52:59.471Z,98730.72
2022-11-18T05:55:29.382Z,98735.69
2022-11-18T05:57:56.077Z,98740.94
2022-11-18T06:00:23.046Z,98746.59
2022-11-18T06:02:51.517Z,98743.41
2022-11-18T06:05:19.203Z,98733.25
2022-11-18T06:07:46.416Z,98739.34
2022-11-18T06:10:16.581Z,98749.22
2022-11-18T06:12:45.384Z,98748.00
2022-11-18T06:15:23.168Z,98743.75
2022-11-18T06:17:59.006Z,98742.16
2022-11-18T06:20:26.973Z,98741.31
2022-11-18T06:22:54.926Z,98741.31
2022-11-18T06:25:21.942Z,98735.37
2022-11-18T06:27:50.160Z,98735.16
2022-11-18T06:30:17.138Z,98740.53
2022-11-18T06:32:46.642Z,98736.66
2022-11-18T06:35:13.342Z,98734.72
2022-11-18T06:37:40.506Z,98734.31
2022-11-18T06:40:10.187Z,98725.72
2022-11-18T06:42:56.116Z,98728.31
2022-11-18T06:45:23.243Z,98726.00
2022-11-18T06:47:50.121Z,98725.34
2022-11-18T06:50:17.196Z,98721.66
2022-11-18T06:52:44.762Z,98728.53
2022-11-18T06:55:11.766Z,98719.94
2022-11-18T06:57:39.874Z,98717.34
2022-11-18T07:00:07.461Z,98722.88
2022-11-18T07:02:38.681Z,98721.37
2022-11-18T07:05:06.674Z,98725.84
2022-11-18T07:07:40.505Z,98728.09
2022-11-18T07:10:09.303Z,98717.16
2022-11-18T07:12:36.078Z,98717.72
2022-11-18T07:15:02.888Z,98722.97
2022-11-18T07:17:32.846Z,98726.78
2022-11-18T07:20:01.187Z,98725.53
2022-11-18T07:22:31.405Z,98720.34
2022-11-18T07:25:00.643Z,98728.94
2022-11-18T07:27:27.479Z,98722.56
2022-11-18T07:29:54.515Z,98727.16
2022-11-18T07:32:21.425Z,98726.66
2022-11-18T07:34:49.473Z,98722.13
2022-11-18T07:37:16.324Z,98732.88
2022-11-18T07:39:43.123Z,98731.16
2022-11-18T07:42:10.201Z,98729.63
2022-11-18T07:44:37.167Z,98724.34
2022-11-18T07:47:03.989Z,98722.53
2022-11-18T07:49:30.840Z,98721.75
2022-11-18T07:51:57.627Z,98725.66
2022-11-18T07:54:24.464Z,98727.31
2022-11-18T07:56:53.597Z,98718.50
2022-11-18T07:59:24.926Z,98712.06
2022-11-18T08:01:54.027Z,98705.63
2022-11-18T08:04:23.280Z,98703.84
2022-11-18T08:06:50.236Z,98714.66
2022-11-18T08:09:17.347Z,98712.34
2022-11-18T08:11:44.355Z,98712.34
2022-11-18T08:14:11.311Z,98718.44
2022-11-18T08:16:38.387Z,98715.31
2022-11-18T08:19:05.255Z,98711.28
2022-11-18T08:21:33.662Z,98705.87
2022-11-18T08:24:02.938Z,98716.47
2022-11-18T08:26:29.846Z,98708.28
2022-11-18T08:28:57.633Z,98704.72
2022-11-18T08:31:27.438Z,98710.19
2022-11-18T08:34:18.393Z,98710.97
2022-11-18T08:36:46.996Z,98708.59
2022-11-18T08:39:16.775Z,98703.69
2022-11-18T08:41:46.430Z,98702.38
2022-11-18T08:44:14.922Z,98696.72
2022-11-18T08:46:45.318Z,98686.47
2022-11-18T08:49:12.528Z,98681.34
2022-11-18T08:51:42.454Z,98690.53
2022-11-18T08:54:15.717Z,98681.97
2022-11-18T08:56:49.710Z,98675.25
2022-11-18T08:59:17.138Z,98684.34
2022-11-18T09:01:46.457Z,98685.41
2022-11-18T09:04:13.400Z,98672.13
2022-11-18T09:06:40.695Z,98675.37
2022-11-18T09:09:12.422Z,98676.31
2022-11-18T09:11:44.908Z,98678.41
2022-11-18T09:17:03.734Z,98683.41
2022-11-18T09:19:47.624Z,98684.59
2022-11-18T09:22:15.072Z,98682.34
2022-11-18T09:24:51.362Z,98676.78
2022-11-18T09:27:28.009Z,98674.63
2022-11-18T09:29:54.877Z,98676.41
2022-11-18T09:32:21.702Z,98684.81
2022-11-18T09:34:50.827Z,98683.63
2022-11-18T09:37:17.796Z,98671.06
2022-11-18T09:39:44.706Z,98668.53
2022-11-18T09:42:32.591Z,98661.75
2022-11-18T09:45:14.546Z,98653.25
2022-11-18T09:47:44.403Z,98664.38
2022-11-18T09:50:41.809Z,98672.69
2022-11-18T09:53:13.983Z,98670.47
2022-11-18T09:55:44.505Z,98663.38
2022-11-18T09:58:32.079Z,98670.34
2022-11-18T10:00:59.056Z,98675.97
2022-11-18T10:03:38.964Z,98663.47
2022-11-18T10:06:29.890Z,98671.78
2022-11-18T10:09:21.393Z,98661.41
2022-11-18T10:12:08.729Z,98663.91
2022-11-18T10:14:53.299Z,98662.97
2022-11-18T10:17:23.534Z,98668.56
2022-11-18T10:19:57.661Z,98661.63
2022-11-18T10:22:31.279Z,98670.38
2022-11-18T10:24:58.863Z,98657.47
2022-11-18T10:27:37.697Z,98652.09
2022-11-18T10:30:15.961Z,98660.09
2022-11-18T10:33:03.520Z,98660.19
2022-11-18T10:35:34.535Z,98664.50
2022-11-18T10:38:08.192Z,98662.72
2022-11-18T10:40:40.898Z,98656.59
2022-11-18T10:43:10.533Z,98651.97
2022-11-18T10:45:37.515Z,98653.22
2022-11-18T10:48:18.043Z,98661.69
2022-11-18T10:50:55.276Z,98666.91
2022-11-18T10:53:49.090Z,98670.16
2022-11-18T10:56:20.627Z,98674.16
2022-11-18T10:59:01.946Z,98662.66
2022-11-18T11:01:36.450Z,98667.81
2022-11-18T11:04:23.679Z,98662.41
2022-11-18T11:06:51.145Z,98660.03
2022-11-18T11:09:59.993Z,98660.41
2022-11-18T11:12:30.412Z,98655.44
2022-11-18T11:15:01.355Z,98654.38
2022-11-18T11:20:49.767Z,98656.72
2022-11-18T11:23:23.472Z,98644.56
2022-11-18T11:28:53.215Z,98646.91
2022-11-18T11:31:38.488Z,98652.87
2022-11-18T11:34:16.631Z,98651.44
2022-11-18T11:37:04.804Z,98652.19
2022-11-18T11:39:37.620Z,98660.97
2022-11-18T11:42:07.493Z,98658.59
2022-11-18T11:44:37.575Z,98658.41
2022-11-18T11:47:25.970Z,98653.28
2022-11-18T11:49:54.389Z,98673.91
2022-11-18T11:52:41.416Z,98668.09
2022-11-18T11:55:27.515Z,98662.84
2022-11-18T11:58:15.708Z,98670.50
2022-11-18T12:00:47.326Z,98675.63
2022-11-18T12:03:34.980Z,98682.13
2022-11-18T12:06:08.321Z,98681.41
2022-11-18T12:08:35.528Z,98684.78
2022-11-18T12:11:12.231Z,98690.75
2022-11-18T12:14:02.236Z,98696.22
2022-11-18T12:16:49.788Z,98682.72
2022-11-18T12:19:18.586Z,98692.75
2022-11-18T12:21:48.490Z,98687.75
2022-11-18T12:24:21.096Z,98685.00
2022-11-18T12:26:48.776Z,98696.69
2022-11-18T12:29:18.941Z,98693.50
2022-11-18T12:32:13.746Z,98691.34
2022-11-18T12:34:46.845Z,98680.94
2022-11-18T12:37:29.865Z,98685.00
2022-11-18T12:40:10.209Z,98676.63
2022-11-18T12:43:09.004Z,98681.03
2022-11-18T12:45:45.330Z,98691.13
2022-11-18T12:48:27.832Z,98698.16
2022-11-18T12:50:56.131Z,98687.41
2022-11-18T12:53:35.284Z,98683.94
2022-11-18T12:56:11.418Z,98678.34
2022-11-18T12:58:38.395Z,98673.44
2022-11-18T13:01:08.649Z,98673.09
2022-11-18T13:03:39.449Z,98688.97
2022-11-18T13:06:11.932Z,98694.88
2022-11-18T13:08:40.610Z,98694.25
2022-11-18T13:12:26.183Z,98694.59
2022-11-18T13:14:52.669Z,98693.75
2022-11-18T13:17:53.413Z,98686.12
2022-11-18T13:20:36.151Z,98690.06
2022-11-18T13:23:35.213Z,98701.06
2022-11-18T13:26:06.319Z,98682.53
2022-11-18T13:28:33.134Z,98681.81
2022-11-18T13:30:59.972Z,98688.69
2022-11-18T13:33:27.087Z,98681.81
2022-11-18T13:35:54.100Z,98667.37
2022-11-18T13:38:28.340Z,98668.66
2022-11-18T13:41:09.332Z,98673.72
2022-11-18T13:43:36.245Z,98673.16
2022-11-18T13:46:17.106Z,98677.91
2022-11-18T13:48:49.189Z,98674.91
2022-11-18T13:51:16.224Z,98681.53
2022-11-18T13:53:45.054Z,98677.69
2022-11-18T13:56:21.265Z,98677.69
2022-11-18T14:01:38.294Z,98684.72
2022-11-18T14:04:09.723Z,98689.34
2022-11-18T14:06:48.153Z,98685.75
2022-11-18T14:09:25.626Z,98688.59
2022-11-18T14:14:48.941Z,98689.94
2022-11-18T14:17:18.975Z,98689.69
2022-11-18T14:19:47.772Z,98697.37
2022-11-18T14:22:21.974Z,98688.50
2022-11-18T14:24:58.064Z,98688.03
2022-11-18T14:27:44.667Z,98701.44
2022-11-18T14:30:31.670Z,98690.44
2022-11-18T14:33:16.154Z,98705.41
2022-11-18T14:36:07.525Z,98696.59
2022-11-18T14:38:47.659Z,98714.41
2022-11-18T14:41:44.662Z,98718.63
2022-11-18T14:44:13.928Z,98724.78
2022-11-18T14:46:47.622Z,98718.09
2022-11-18T14:49:19.341Z,98716.84
2022-11-18T14:51:49.015Z,98728.81
2022-11-18T14:54:23.871Z,98728.53
2022-11-18T14:56:53.867Z,98723.62
2022-11-18T14:59:37.821Z,98735.22
2022-11-18T15:02:04.863Z,98739.44
2022-11-18T15:04:32.254Z,98735.94
2022-11-18T15:06:59.115Z,98738.94
2022-11-18T15:09:28.772Z,98748.81
2022-11-18T15:11:55.570Z,98751.87
2022-11-18T15:14:22.428Z,98751.50
2022-11-18T15:16:49.565Z,98748.50
2022-11-18T15:19:16.717Z,98751.50
2022-11-18T15:21:44.341Z,98757.44
2022-11-18T15:24:11.071Z,98766.13
2022-11-18T15:26:42.830Z,98767.66
2022-11-18T15:29:16.242Z,98769.44
2022-11-18T15:31:43.051Z,98776.13
2022-11-18T15:34:10.409Z,98774.94
2022-11-18T15:36:37.231Z,98780.03
2022-11-18T15:39:04.107Z,98773.22
2022-11-18T15:41:31.737Z,98777.69
2022-11-18T15:44:00.006Z,98774.25
2022-11-18T15:46:28.204Z,98783.50
2022-11-18T15:48:56.014Z,98770.69
2022-11-18T15:51:23.340Z,98783.84
2022-11-18T15:53:50.259Z,98777.97
2022-11-18T15:56:27.073Z,98788.78
2022-11-18T15:59:07.076Z,98790.19
2022-11-18T16:01:35.476Z,98795.31
2022-11-18T16:04:02.702Z,98790.13
2022-11-18T16:06:29.726Z,98793.03
2022-11-18T16:08:59.977Z,98795.56
2022-11-18T16:11:45.871Z,98797.72
2022-11-18T16:14:13.444Z,98795.06
2022-11-18T16:16:40.896Z,98794.28
2022-11-18T16:19:08.702Z,98804.47
2022-11-18T16:21:36.576Z,98803.63
2022-11-18T16:24:04.911Z,98818.53
2022-11-18T16:26:32.236Z,98820.81
2022-11-18T16:28:59.554Z,98816.16
2022-11-18T16:31:42.236Z,98823.81
2022-11-18T16:34:09.982Z,98819.94
2022-11-18T16:36:37.548Z,98823.69
2022-11-18T16:39:05.644Z,98823.62
2022-11-18T16:41:32.469Z,98823.56
2022-11-18T16:44:00.044Z,98829.53
2022-11-18T16:46:27.120Z,98830.56
2022-11-18T16:48:53.874Z,98831.78
2022-11-18T16:51:21.759Z,98828.50
2022-11-18T16:53:55.533Z,98834.53
2022-11-18T16:56:23.229Z,98842.41
2022-11-18T16:58:49.955Z,98840.53
2022-11-18T17:01:21.022Z,98845.09
2022-11-18T17:03:50.831Z,98846.84
2022-11-18T17:06:17.633Z,98858.22
2022-11-18T17:08:44.427Z,98863.38
2022-11-18T17:11:11.707Z,98867.03
2022-11-18T17:13:38.693Z,98866.03
2022-11-18T17:16:06.825Z,98875.16
2022-11-18T17:18:33.774Z,98868.50
2022-11-18T17:21:07.903Z,98873.13
2022-11-18T17:23:35.061Z,98870.63
2022-11-18T17:26:02.319Z,98880.91
2022-11-18T17:28:32.833Z,98888.19
2022-11-18T17:31:04.677Z,98893.41
2022-11-18T17:33:31.411Z,98896.03
2022-11-18T17:36:01.458Z,98897.78
2022-11-18T17:38:29.078Z,98908.94
2022-11-18T17:40:56.622Z,98911.16
2022-11-18T17:43:24.246Z,98914.94
2022-11-18T17:45:51.915Z,98919.13
2022-11-18T17:48:19.203Z,98929.53
2022-11-18T17:50:46.223Z,98928.38
2022-11-18T17:53:13.143Z,98939.97
2022-11-18T17:55:40.236Z,98943.97
2022-11-18T17:58:07.403Z,98954.38
2022-11-18T18:00:34.926Z,98962.28
2022-11-18T18:03:02.230Z,98957.75
2022-11-18T18:05:28.957Z,98959.00
2022-11-18T18:07:56.425Z,98971.19
2022-11-18T18:10:23.943Z,98966.06
2022-11-18T18:13:09.673Z,98963.84
2022-11-18T18:15:36.536Z,98968.78
2022-11-18T18:18:03.351Z,98977.28
2022-11-18T18:20:30.344Z,98975.19
2022-11-18T18:22:57.324Z,98983.56
2022-11-18T18:25:24.021Z,98989.88
2022-11-18T18:27:50.771Z,98997.91
2022-11-18T18:30:17.704Z,99004.44
2022-11-18T18:32:49.473Z,99004.19
2022-11-18T18:35:18.958Z,99019.25
2022-11-18T18:37:45.670Z,99021.84
2022-11-18T18:40:13.986Z,99024.06
2022-11-18T18:42:40.820Z,99023.50
2022-11-18T18:45:26.597Z,99022.59
2022-11-18T18:47:53.351Z,99032.03
2022-11-18T18:50:22.789Z,99030.19
2022-11-18T18:52:53.522Z,99035.41
2022-11-18T18:55:20.278Z,99038.78
2022-11-18T18:57:47.062Z,99040.56
2022-11-18T19:00:14.195Z,99051.06
2022-11-18T19:02:40.989Z,99044.25
2022-11-18T19:05:08.041Z,99051.19
2022-11-18T19:07:34.900Z,99056.84
2022-11-18T19:10:02.279Z,99058.25
2022-11-18T19:12:43.987Z,99059.28
2022-11-18T19:15:11.897Z,99066.44
2022-11-18T19:17:39.218Z,99077.63
2022-11-18T19:20:25.375Z,99076.78
2022-11-18T19:22:52.174Z,99082.88
2022-11-18T19:25:19.032Z,99086.06
2022-11-18T19:27:45.811Z,99081.31
2022-11-18T19:30:12.879Z,99084.63
2022-11-18T19:32:40.249Z,99088.34
2022-11-18T19:35:07.449Z,99088.88
2022-11-18T19:37:34.570Z,99098.41
2022-11-18T19:40:08.867Z,99106.03
2022-11-18T19:42:37.974Z,99110.06
2022-11-18T19:45:05.678Z,99113.53
2022-11-18T19:47:32.689Z,99122.41
2022-11-18T19:49:59.503Z,99124.63
2022-11-18T19:52:26.460Z,99129.69
2022-11-18T19:54:53.283Z,99136.56
2022-11-18T19:57:20.123Z,99139.06
2022-11-18T19:59:46.938Z,99146.47
2022-11-18T20:02:13.795Z,99152.31
2022-11-18T20:04:40.647Z,99165.16
2022-11-18T20:07:07.374Z,99159.94
2022-11-18T20:09:34.239Z,99171.13
2022-11-18T20:12:01.108Z,99174.34
2022-11-18T20:14:27.958Z,99177.47
2022-11-18T20:16:54.774Z,99180.38
2022-11-18T20:19:21.631Z,99194.94
2022-11-18T20:21:49.672Z,99199.94
2022-11-18T20:24:17.614Z,99205.28
2022-11-18T20:26:44.918Z,99205.12
2022-11-18T20:29:11.873Z,99209.28
2022-11-18T20:31:38.807Z,99208.78
2022-11-18T20:34:05.758Z,99209.47
2022-11-18T20:36:34.690Z,99214.81
2022-11-18T20:39:03.770Z,99221.19
2022-11-18T20:41:31.986Z,99235.62
2022-11-18T20:43:59.514Z,99231.91
2022-11-18T20:46:26.616Z,99242.28
2022-11-18T20:48:53.906Z,99241.09
2022-11-18T20:51:23.863Z,99235.41
2022-11-18T20:53:51.370Z,99253.41
2022-11-18T20:56:19.292Z,99254.37
2022-11-18T20:58:46.107Z,99266.72
2022-11-18T21:01:17.143Z,99260.56
2022-11-18T21:03:48.173Z,99272.66
2022-11-18T21:06:14.985Z,99273.12
2022-11-18T21:08:42.723Z,99277.13
2022-11-18T21:11:10.828Z,99285.06
2022-11-18T21:13:56.676Z,99291.16
2022-11-18T21:16:23.744Z,99285.75
2022-11-18T21:18:50.492Z,99284.03
2022-11-18T21:21:35.995Z,99302.84
2022-11-18T21:24:03.800Z,99299.00
2022-11-18T21:26:31.884Z,99301.75
2022-11-18T21:29:00.134Z,99300.41
2022-11-18T21:31:27.807Z,99292.81
2022-11-18T21:33:55.043Z,99295.47
2022-11-18T21:36:22.723Z,99288.62
2022-11-18T21:38:49.714Z,99288.94
2022-11-18T21:41:17.172Z,99281.44
2022-11-18T21:44:04.485Z,99288.62
2022-11-18T21:46:31.686Z,99292.09
2022-11-18T21:49:00.413Z,99296.06
2022-11-18T21:51:27.724Z,99311.69
2022-11-18T21:53:54.692Z,99307.94
2022-11-18T21:56:22.739Z,99314.06
2022-11-18T21:58:49.840Z,99308.44
2022-11-18T22:01:24.068Z,99314.94
2022-11-18T22:03:55.300Z,99313.91
2022-11-18T22:06:23.190Z,99316.75
2022-11-18T22:08:50.779Z,99320.88
2022-11-18T22:11:17.759Z,99321.91
2022-11-18T22:13:44.499Z,99338.50
2022-11-18T22:16:15.666Z,99339.19
2022-11-18T22:18:43.903Z,99339.53
2022-11-18T22:21:12.225Z,99339.09
2022-11-18T22:23:39.292Z,99340.16
2022-11-18T22:26:08.973Z,99341.78
2022-11-18T22:28:36.223Z,99361.00
2022-11-18T22:31:07.500Z,99366.28
2022-11-18T22:33:34.380Z,99379.38
2022-11-18T22:36:02.316Z,99387.22
2022-11-18T22:38:29.444Z,99387.91
2022-11-18T22:40:59.995Z,99381.44
2022-11-18T22:43:26.758Z,99386.13
2022-11-18T22:46:03.767Z,99393.03
2022-11-18T22:48:30.823Z,99393.16
2022-11-18T22:51:01.822Z,99388.78
2022-11-18T22:53:29.441Z,99392.22
2022-11-18T22:56:02.368Z,99401.88
2022-11-18T22:58:29.541Z,99390.41
2022-11-18T23:00:59.713Z,99400.63
2022-11-18T23:03:26.558Z,99398.31
2022-11-18T23:05:53.347Z,99402.41
2022-11-18T23:08:20.217Z,99397.06
2022-11-18T23:10:47.027Z,99400.53
2022-11-18T23:13:32.204Z,99404.72
2022-11-18T23:15:59.359Z,99410.72
2022-11-18T23:18:26.952Z,99408.09
2022-11-18T23:20:59.065Z,99408.25
2022-11-18T23:23:25.876Z,99396.22
2022-11-18T23:25:52.843Z,99402.06
2022-11-18T23:28:19.988Z,99388.25
2022-11-18T23:30:46.779Z,99402.09
2022-11-18T23:33:13.653Z,99397.91
2022-11-18T23:35:40.397Z,99398.69
2022-11-18T23:38:07.204Z,99400.69
2022-11-18T23:40:33.963Z,99402.47
2022-11-18T23:43:00.806Z,99398.19
2022-11-18T23:45:27.634Z,99397.50
2022-11-18T23:47:54.389Z,99410.50
2022-11-18T23:50:21.165Z,99406.22
2022-11-18T23:52:47.918Z,99399.91
2022-11-18T23:55:14.750Z,99414.94
2022-11-18T23:57:41.571Z,99422.72
